sensor_id;sensor_type;location;lat;lon;timestamp;P1;durP1;ratioP1;P2;durP2;ratioP2
9536;SDS011;4807;48.024;11.726;2022-08-05T00:02:58;1999.90;;;999.90;;
9536;SDS011;4807;48.024;11.726;2022-08-05T00:06:12;1999.90;;;999.90;;
9536;SDS011;4807;48.024;11.726;2022-08-05T00:09:37;1999.90;;;999.90;;
9536;SDS011;4807;48.024;11.726;2022-08-05T00:12:49;1999.90;;;999.90;;
9536;SDS011;4807;48.024;11.726;2022-08-05T00:16:02;1999.90;;;999.90;;
9536;SDS011;4807;48.024;11.726;2022-08-05T00:19:13;1999.90;;;999.90;;
9536;SDS011;4807;48.024;11.726;2022-08-05T00:22:28;1999.90;;;999.90;;
9536;SDS011;4807;48.024;11.726;2022-08-05T00:25:36;1999.90;;;999.90;;
9536;SDS011;4807;48.024;11.726;2022-08-05T00:28:51;1999.90;;;999.90;;
9536;SDS011;4807;48.024;11.726;2022-08-05T00:31:59;1999.90;;;999.90;;
9536;SDS011;4807;48.024;11.726;2022-08-05T00:35:20;1999.90;;;999.90;;
9536;SDS011;4807;48.024;11.726;2022-08-05T00:38:40;1999.90;;;999.90;;
9536;SDS011;4807;48.024;11.726;2022-08-05T00:41:49;1999.90;;;999.90;;
9536;SDS011;4807;48.024;11.726;2022-08-05T00:45:01;1999.90;;;999.90;;
9536;SDS011;4807;48.024;11.726;2022-08-05T00:48:19;1999.90;;;999.90;;
9536;SDS011;4807;48.024;11.726;2022-08-05T00:51:36;1999.90;;;999.90;;
9536;SDS011;4807;48.024;11.726;2022-08-05T00:54:58;1999.90;;;999.90;;
9536;SDS011;4807;48.024;11.726;2022-08-05T00:58:06;1999.90;;;999.90;;
9536;SDS011;4807;48.024;11.726;2022-08-05T01:01:16;1999.90;;;999.90;;
9536;SDS011;4807;48.024;11.726;2022-08-05T01:04:45;1999.90;;;999.90;;
9536;SDS011;4807;48.024;11.726;2022-08-05T01:07:56;1999.90;;;999.90;;
9536;SDS011;4807;48.024;11.726;2022-08-05T01:11:28;1999.90;;;999.90;;
9536;SDS011;4807;48.024;11.726;2022-08-05T01:14:46;1999.90;;;999.90;;
9536;SDS011;4807;48.024;11.726;2022-08-05T01:18:02;1999.90;;;999.90;;
9536;SDS011;4807;48.024;11.726;2022-08-05T01:29:04;1999.90;;;999.90;;
9536;SDS011;4807;48.024;11.726;2022-08-05T01:32:21;1999.90;;;999.90;;
9536;SDS011;4807;48.024;11.726;2022-08-05T01:35:34;1999.90;;;999.90;;
9536;SDS011;4807;48.024;11.726;2022-08-05T01:38:58;1999.90;;;999.90;;
9536;SDS011;4807;48.024;11.726;2022-08-05T01:42:08;1999.90;;;999.90;;
9536;SDS011;4807;48.024;11.726;2022-08-05T01:45:22;1999.90;;;999.90;;
9536;SDS011;4807;48.024;11.726;2022-08-05T01:48:40;1999.90;;;999.90;;
9536;SDS011;4807;48.024;11.726;2022-08-05T01:51:56;1999.90;;;999.90;;
9536;SDS011;4807;48.024;11.726;2022-08-05T01:55:23;1999.90;;;999.90;;
9536;SDS011;4807;48.024;11.726;2022-08-05T01:58:35;1999.90;;;999.90;;
9536;SDS011;4807;48.024;11.726;2022-08-05T02:01:57;1999.90;;;999.90;;
9536;SDS011;4807;48.024;11.726;2022-08-05T02:05:22;1999.90;;;999.90;;
9536;SDS011;4807;48.024;11.726;2022-08-05T02:08:48;1999.90;;;999.90;;
9536;SDS011;4807;48.024;11.726;2022-08-05T02:12:05;1999.90;;;999.90;;
9536;SDS011;4807;48.024;11.726;2022-08-05T02:15:21;1999.90;;;999.90;;
9536;SDS011;4807;48.024;11.726;2022-08-05T02:18:41;1999.90;;;999.90;;
9536;SDS011;4807;48.024;11.726;2022-08-05T02:22:01;1999.90;;;999.90;;
9536;SDS011;4807;48.024;11.726;2022-08-05T02:25:33;1999.90;;;999.90;;
9536;SDS011;4807;48.024;11.726;2022-08-05T02:28:55;1999.90;;;999.90;;
9536;SDS011;4807;48.024;11.726;2022-08-05T02:32:05;1999.90;;;999.90;;
9536;SDS011;4807;48.024;11.726;2022-08-05T02:35:30;1999.90;;;999.90;;
9536;SDS011;4807;48.024;11.726;2022-08-05T02:38:56;1999.90;;;999.90;;
9536;SDS011;4807;48.024;11.726;2022-08-05T02:42:08;1999.90;;;999.90;;
9536;SDS011;4807;48.024;11.726;2022-08-05T02:45:31;1999.90;;;999.90;;
9536;SDS011;4807;48.024;11.726;2022-08-05T02:48:59;1999.90;;;999.90;;
9536;SDS011;4807;48.024;11.726;2022-08-05T02:52:10;1999.90;;;999.90;;
9536;SDS011;4807;48.024;11.726;2022-08-05T02:55:36;1999.90;;;999.90;;
9536;SDS011;4807;48.024;11.726;2022-08-05T02:59:00;1999.90;;;999.90;;
9536;SDS011;4807;48.024;11.726;2022-08-05T03:02:12;1999.90;;;999.90;;
9536;SDS011;4807;48.024;11.726;2022-08-05T03:05:23;1999.90;;;999.90;;
9536;SDS011;4807;48.024;11.726;2022-08-05T03:08:53;1999.90;;;999.90;;
9536;SDS011;4807;48.024;11.726;2022-08-05T03:12:05;1999.90;;;999.90;;
9536;SDS011;4807;48.024;11.726;2022-08-05T03:15:14;1999.90;;;999.90;;
9536;SDS011;4807;48.024;11.726;2022-08-05T03:18:23;1999.90;;;999.90;;
9536;SDS011;4807;48.024;11.726;2022-08-05T03:21:35;1999.90;;;999.90;;
9536;SDS011;4807;48.024;11.726;2022-08-05T03:24:55;1999.90;;;999.90;;
9536;SDS011;4807;48.024;11.726;2022-08-05T03:28:25;1999.90;;;999.90;;
9536;SDS011;4807;48.024;11.726;2022-08-05T03:31:35;1999.90;;;999.90;;
9536;SDS011;4807;48.024;11.726;2022-08-05T03:35:02;1999.90;;;999.90;;
9536;SDS011;4807;48.024;11.726;2022-08-05T03:38:14;1999.90;;;999.90;;
9536;SDS011;4807;48.024;11.726;2022-08-05T03:41:44;1999.90;;;999.90;;
9536;SDS011;4807;48.024;11.726;2022-08-05T03:44:58;1999.90;;;999.90;;
9536;SDS011;4807;48.024;11.726;2022-08-05T03:48:08;1999.90;;;999.90;;
9536;SDS011;4807;48.024;11.726;2022-08-05T03:51:18;1999.90;;;999.90;;
9536;SDS011;4807;48.024;11.726;2022-08-05T03:54:55;1999.90;;;999.90;;
9536;SDS011;4807;48.024;11.726;2022-08-05T03:58:31;1999.90;;;999.90;;
9536;SDS011;4807;48.024;11.726;2022-08-05T04:01:46;1999.90;;;999.90;;
9536;SDS011;4807;48.024;11.726;2022-08-05T04:05:04;1999.90;;;999.90;;
9536;SDS011;4807;48.024;11.726;2022-08-05T04:08:16;1999.90;;;999.90;;
9536;SDS011;4807;48.024;11.726;2022-08-05T04:11:41;1999.90;;;999.90;;
9536;SDS011;4807;48.024;11.726;2022-08-05T04:14:59;1999.90;;;999.90;;
9536;SDS011;4807;48.024;11.726;2022-08-05T04:18:09;1999.90;;;999.90;;
9536;SDS011;4807;48.024;11.726;2022-08-05T04:21:28;1999.90;;;999.90;;
9536;SDS011;4807;48.024;11.726;2022-08-05T04:24:56;1999.90;;;999.90;;
9536;SDS011;4807;48.024;11.726;2022-08-05T04:28:05;1999.90;;;999.90;;
9536;SDS011;4807;48.024;11.726;2022-08-05T04:31:19;1999.90;;;999.90;;
9536;SDS011;4807;48.024;11.726;2022-08-05T04:34:32;1999.90;;;999.90;;
9536;SDS011;4807;48.024;11.726;2022-08-05T04:37:48;1999.90;;;999.90;;
9536;SDS011;4807;48.024;11.726;2022-08-05T04:41:12;1999.90;;;999.90;;
9536;SDS011;4807;48.024;11.726;2022-08-05T04:44:20;1999.90;;;999.90;;
9536;SDS011;4807;48.024;11.726;2022-08-05T04:47:37;1999.90;;;999.90;;
9536;SDS011;4807;48.024;11.726;2022-08-05T04:50:52;1999.90;;;999.90;;
9536;SDS011;4807;48.024;11.726;2022-08-05T04:54:17;1999.90;;;999.90;;
9536;SDS011;4807;48.024;11.726;2022-08-05T04:57:27;1999.90;;;999.90;;
9536;SDS011;4807;48.024;11.726;2022-08-05T05:00:42;1999.90;;;999.90;;
9536;SDS011;4807;48.024;11.726;2022-08-05T05:03:57;1999.90;;;999.90;;
9536;SDS011;4807;48.024;11.726;2022-08-05T05:07:06;1999.90;;;999.90;;
9536;SDS011;4807;48.024;11.726;2022-08-05T05:10:15;1999.90;;;999.90;;
9536;SDS011;4807;48.024;11.726;2022-08-05T05:13:23;1999.90;;;999.90;;
9536;SDS011;4807;48.024;11.726;2022-08-05T05:16:37;1999.90;;;999.90;;
9536;SDS011;4807;48.024;11.726;2022-08-05T05:19:47;1999.90;;;999.90;;
9536;SDS011;4807;48.024;11.726;2022-08-05T05:22:55;1999.90;;;999.90;;
9536;SDS011;4807;48.024;11.726;2022-08-05T05:26:13;1999.90;;;999.90;;
9536;SDS011;4807;48.024;11.726;2022-08-05T05:29:22;1999.90;;;999.90;;
9536;SDS011;4807;48.024;11.726;2022-08-05T05:32:51;1999.90;;;999.90;;
9536;SDS011;4807;48.024;11.726;2022-08-05T05:36:01;1999.90;;;999.90;;
9536;SDS011;4807;48.024;11.726;2022-08-05T05:39:09;1999.90;;;999.90;;
9536;SDS011;4807;48.024;11.726;2022-08-05T05:42:19;1999.90;;;999.90;;
9536;SDS011;4807;48.024;11.726;2022-08-05T05:45:29;1999.90;;;999.90;;
9536;SDS011;4807;48.024;11.726;2022-08-05T05:48:37;1999.90;;;999.90;;
9536;SDS011;4807;48.024;11.726;2022-08-05T05:51:50;1999.90;;;999.90;;
9536;SDS011;4807;48.024;11.726;2022-08-05T05:55:00;1999.90;;;999.90;;
9536;SDS011;4807;48.024;11.726;2022-08-05T05:58:18;1999.90;;;999.90;;
9536;SDS011;4807;48.024;11.726;2022-08-05T06:01:38;1999.90;;;999.90;;
9536;SDS011;4807;48.024;11.726;2022-08-05T06:05:03;1999.90;;;999.90;;
9536;SDS011;4807;48.024;11.726;2022-08-05T06:08:24;1999.90;;;999.90;;
9536;SDS011;4807;48.024;11.726;2022-08-05T06:11:38;1999.90;;;999.90;;
9536;SDS011;4807;48.024;11.726;2022-08-05T06:15:04;1999.90;;;999.90;;
9536;SDS011;4807;48.024;11.726;2022-08-05T06:18:29;1999.90;;;999.90;;
9536;SDS011;4807;48.024;11.726;2022-08-05T06:21:41;1999.90;;;999.90;;
9536;SDS011;4807;48.024;11.726;2022-08-05T06:24:56;1999.90;;;999.90;;
9536;SDS011;4807;48.024;11.726;2022-08-05T06:28:05;1999.90;;;999.90;;
9536;SDS011;4807;48.024;11.726;2022-08-05T06:31:27;1999.90;;;999.90;;
9536;SDS011;4807;48.024;11.726;2022-08-05T06:34:37;1999.90;;;999.90;;
9536;SDS011;4807;48.024;11.726;2022-08-05T06:37:52;1999.90;;;999.90;;
9536;SDS011;4807;48.024;11.726;2022-08-05T06:41:08;1999.90;;;999.90;;
9536;SDS011;4807;48.024;11.726;2022-08-05T06:44:17;1999.90;;;999.90;;
9536;SDS011;4807;48.024;11.726;2022-08-05T06:47:27;994.63;;;968.70;;
9536;SDS011;4807;48.024;11.726;2022-08-05T06:50:56;1250.33;;;999.90;;
9536;SDS011;4807;48.024;11.726;2022-08-05T06:54:05;718.00;;;698.90;;
9536;SDS011;4807;48.024;11.726;2022-08-05T06:57:18;114.83;;;110.90;;
9536;SDS011;4807;48.024;11.726;2022-08-05T07:00:48;500.50;;;486.70;;
9536;SDS011;4807;48.024;11.726;2022-08-05T07:03:57;353.27;;;343.33;;
9536;SDS011;4807;48.024;11.726;2022-08-05T07:07:06;571.10;;;555.63;;
9536;SDS011;4807;48.024;11.726;2022-08-05T07:10:20;647.23;;;629.63;;
9536;SDS011;4807;48.024;11.726;2022-08-05T07:13:39;553.00;;;538.17;;
9536;SDS011;4807;48.024;11.726;2022-08-05T07:17:05;422.43;;;410.57;;
9536;SDS011;4807;48.024;11.726;2022-08-05T07:20:35;853.13;;;830.63;;
9536;SDS011;4807;48.024;11.726;2022-08-05T07:23:44;369.47;;;359.10;;
9536;SDS011;4807;48.024;11.726;2022-08-05T07:26:57;440.47;;;428.17;;
9536;SDS011;4807;48.024;11.726;2022-08-05T07:30:10;420.80;;;409.17;;
9536;SDS011;4807;48.024;11.726;2022-08-05T07:33:33;330.40;;;321.03;;
9536;SDS011;4807;48.024;11.726;2022-08-05T07:36:46;305.53;;;296.57;;
9536;SDS011;4807;48.024;11.726;2022-08-05T07:39:56;175.60;;;170.07;;
9536;SDS011;4807;48.024;11.726;2022-08-05T07:43:25;203.43;;;197.17;;
9536;SDS011;4807;48.024;11.726;2022-08-05T07:46:35;91.67;;;88.47;;
9536;SDS011;4807;48.024;11.726;2022-08-05T07:49:43;103.50;;;99.93;;
9536;SDS011;4807;48.024;11.726;2022-08-05T07:53:00;131.03;;;126.67;;
9536;SDS011;4807;48.024;11.726;2022-08-05T07:56:09;648.10;;;630.70;;
9536;SDS011;4807;48.024;11.726;2022-08-05T07:59:38;578.33;;;562.53;;
9536;SDS011;4807;48.024;11.726;2022-08-05T08:06:35;380.60;;;370.00;;
9536;SDS011;4807;48.024;11.726;2022-08-05T08:09:47;270.20;;;262.17;;
9536;SDS011;4807;48.024;11.726;2022-08-05T08:13:04;251.53;;;244.07;;
9536;SDS011;4807;48.024;11.726;2022-08-05T08:16:17;524.10;;;509.80;;
9536;SDS011;4807;48.024;11.726;2022-08-05T08:19:47;959.27;;;934.17;;
9536;SDS011;4807;48.024;11.726;2022-08-05T08:23:17;1494.17;;;999.90;;
9536;SDS011;4807;48.024;11.726;2022-08-05T08:26:46;1657.57;;;999.90;;
9536;SDS011;4807;48.024;11.726;2022-08-05T08:29:57;1999.90;;;999.90;;
9536;SDS011;4807;48.024;11.726;2022-08-05T08:33:32;1999.90;;;999.90;;
9536;SDS011;4807;48.024;11.726;2022-08-05T08:36:43;1999.90;;;999.90;;
9536;SDS011;4807;48.024;11.726;2022-08-05T08:40:03;1963.67;;;999.90;;
9536;SDS011;4807;48.024;11.726;2022-08-05T08:43:13;1999.90;;;999.90;;
9536;SDS011;4807;48.024;11.726;2022-08-05T08:46:43;1999.90;;;999.90;;
9536;SDS011;4807;48.024;11.726;2022-08-05T08:49:55;1999.90;;;999.90;;
9536;SDS011;4807;48.024;11.726;2022-08-05T08:53:25;1999.90;;;999.90;;
9536;SDS011;4807;48.024;11.726;2022-08-05T08:56:42;1999.90;;;999.90;;
9536;SDS011;4807;48.024;11.726;2022-08-05T08:59:54;1999.90;;;999.90;;
9536;SDS011;4807;48.024;11.726;2022-08-05T09:03:10;1999.90;;;999.90;;
9536;SDS011;4807;48.024;11.726;2022-08-05T09:06:24;1999.90;;;999.90;;
9536;SDS011;4807;48.024;11.726;2022-08-05T09:09:36;1999.90;;;999.90;;
9536;SDS011;4807;48.024;11.726;2022-08-05T09:12:46;1999.90;;;999.90;;
9536;SDS011;4807;48.024;11.726;2022-08-05T09:15:58;777.57;;;756.87;;
9536;SDS011;4807;48.024;11.726;2022-08-05T09:19:07;677.87;;;659.53;;
9536;SDS011;4807;48.024;11.726;2022-08-05T09:22:20;695.13;;;676.63;;
9536;SDS011;4807;48.024;11.726;2022-08-05T09:25:39;878.37;;;855.13;;
9536;SDS011;4807;48.024;11.726;2022-08-05T09:29:10;1999.90;;;999.90;;
9536;SDS011;4807;48.024;11.726;2022-08-05T09:32:32;1999.90;;;999.90;;
9536;SDS011;4807;48.024;11.726;2022-08-05T09:35:58;1999.90;;;999.90;;
9536;SDS011;4807;48.024;11.726;2022-08-05T09:39:23;1999.90;;;999.90;;
9536;SDS011;4807;48.024;11.726;2022-08-05T09:42:50;1999.90;;;999.90;;
9536;SDS011;4807;48.024;11.726;2022-08-05T09:46:00;1999.90;;;999.90;;
9536;SDS011;4807;48.024;11.726;2022-08-05T09:49:21;1999.90;;;999.90;;
9536;SDS011;4807;48.024;11.726;2022-08-05T09:52:52;1999.90;;;999.90;;
9536;SDS011;4807;48.024;11.726;2022-08-05T09:56:06;1999.90;;;999.90;;
9536;SDS011;4807;48.024;11.726;2022-08-05T09:59:18;1999.90;;;999.90;;
9536;SDS011;4807;48.024;11.726;2022-08-05T10:02:35;1999.90;;;999.90;;
9536;SDS011;4807;48.024;11.726;2022-08-05T10:05:58;1999.90;;;999.90;;
9536;SDS011;4807;48.024;11.726;2022-08-05T10:09:21;1999.90;;;999.90;;
9536;SDS011;4807;48.024;11.726;2022-08-05T10:12:38;1999.90;;;999.90;;
9536;SDS011;4807;48.024;11.726;2022-08-05T10:15:55;1999.90;;;999.90;;
9536;SDS011;4807;48.024;11.726;2022-08-05T10:19:08;1999.90;;;999.90;;
9536;SDS011;4807;48.024;11.726;2022-08-05T10:22:20;1999.90;;;999.90;;
9536;SDS011;4807;48.024;11.726;2022-08-05T10:25:36;1999.90;;;999.90;;
9536;SDS011;4807;48.024;11.726;2022-08-05T10:28:45;1999.90;;;999.90;;
9536;SDS011;4807;48.024;11.726;2022-08-05T10:31:55;1999.90;;;999.90;;
9536;SDS011;4807;48.024;11.726;2022-08-05T10:35:25;1999.90;;;999.90;;
9536;SDS011;4807;48.024;11.726;2022-08-05T10:38:49;1999.90;;;999.90;;
9536;SDS011;4807;48.024;11.726;2022-08-05T10:42:07;1999.90;;;999.90;;
9536;SDS011;4807;48.024;11.726;2022-08-05T10:45:24;1999.90;;;999.90;;
9536;SDS011;4807;48.024;11.726;2022-08-05T10:48:47;1999.90;;;999.90;;
9536;SDS011;4807;48.024;11.726;2022-08-05T10:52:04;1999.90;;;999.90;;
9536;SDS011;4807;48.024;11.726;2022-08-05T10:55:15;1999.90;;;999.90;;
9536;SDS011;4807;48.024;11.726;2022-08-05T10:58:24;1999.90;;;999.90;;
9536;SDS011;4807;48.024;11.726;2022-08-05T11:02:05;1999.90;;;999.90;;
9536;SDS011;4807;48.024;11.726;2022-08-05T11:05:36;1999.90;;;999.90;;
9536;SDS011;4807;48.024;11.726;2022-08-05T11:12:48;1999.90;;;999.90;;
9536;SDS011;4807;48.024;11.726;2022-08-05T11:19:51;1999.90;;;999.90;;
9536;SDS011;4807;48.024;11.726;2022-08-05T11:23:33;1999.90;;;999.90;;
9536;SDS011;4807;48.024;11.726;2022-08-05T11:34:53;1999.90;;;999.90;;
9536;SDS011;4807;48.024;11.726;2022-08-05T11:38:02;1999.90;;;999.90;;
9536;SDS011;4807;48.024;11.726;2022-08-05T11:41:31;1999.90;;;999.90;;
9536;SDS011;4807;48.024;11.726;2022-08-05T11:45:04;1999.90;;;999.90;;
9536;SDS011;4807;48.024;11.726;2022-08-05T11:48:34;1999.90;;;999.90;;
9536;SDS011;4807;48.024;11.726;2022-08-05T11:51:46;1999.90;;;999.90;;
9536;SDS011;4807;48.024;11.726;2022-08-05T11:54:58;1999.90;;;999.90;;
9536;SDS011;4807;48.024;11.726;2022-08-05T11:58:19;1999.90;;;999.90;;
9536;SDS011;4807;48.024;11.726;2022-08-05T12:01:36;1999.90;;;999.90;;
9536;SDS011;4807;48.024;11.726;2022-08-05T12:04:58;1999.90;;;999.90;;
9536;SDS011;4807;48.024;11.726;2022-08-05T12:08:23;1999.90;;;999.90;;
9536;SDS011;4807;48.024;11.726;2022-08-05T12:11:31;1999.90;;;999.90;;
9536;SDS011;4807;48.024;11.726;2022-08-05T12:14:45;1999.90;;;999.90;;
9536;SDS011;4807;48.024;11.726;2022-08-05T12:17:57;1999.90;;;999.90;;
9536;SDS011;4807;48.024;11.726;2022-08-05T12:21:17;1999.90;;;999.90;;
9536;SDS011;4807;48.024;11.726;2022-08-05T12:24:32;1999.90;;;999.90;;
9536;SDS011;4807;48.024;11.726;2022-08-05T12:27:46;1999.90;;;999.90;;
9536;SDS011;4807;48.024;11.726;2022-08-05T12:30:59;1999.90;;;999.90;;
9536;SDS011;4807;48.024;11.726;2022-08-05T12:34:11;1999.90;;;999.90;;
9536;SDS011;4807;48.024;11.726;2022-08-05T12:37:27;1999.90;;;999.90;;
9536;SDS011;4807;48.024;11.726;2022-08-05T12:40:37;1999.90;;;999.90;;
9536;SDS011;4807;48.024;11.726;2022-08-05T12:43:50;1999.90;;;999.90;;
9536;SDS011;4807;48.024;11.726;2022-08-05T12:47:01;1999.90;;;999.90;;
9536;SDS011;4807;48.024;11.726;2022-08-05T12:50:15;1999.90;;;999.90;;
9536;SDS011;4807;48.024;11.726;2022-08-05T12:53:25;1999.90;;;999.90;;
9536;SDS011;4807;48.024;11.726;2022-08-05T12:56:46;1999.90;;;999.90;;
9536;SDS011;4807;48.024;11.726;2022-08-05T12:59:57;1999.90;;;999.90;;
9536;SDS011;4807;48.024;11.726;2022-08-05T13:03:26;1999.90;;;999.90;;
9536;SDS011;4807;48.024;11.726;2022-08-05T13:06:40;1999.90;;;999.90;;
9536;SDS011;4807;48.024;11.726;2022-08-05T13:09:57;1999.90;;;999.90;;
9536;SDS011;4807;48.024;11.726;2022-08-05T13:13:06;1999.90;;;999.90;;
9536;SDS011;4807;48.024;11.726;2022-08-05T13:16:43;1999.90;;;999.90;;
9536;SDS011;4807;48.024;11.726;2022-08-05T13:20:03;1999.90;;;999.90;;
9536;SDS011;4807;48.024;11.726;2022-08-05T13:23:18;1999.90;;;999.90;;
9536;SDS011;4807;48.024;11.726;2022-08-05T13:26:28;1999.90;;;999.90;;
9536;SDS011;4807;48.024;11.726;2022-08-05T13:29:36;1999.90;;;999.90;;
9536;SDS011;4807;48.024;11.726;2022-08-05T13:33:05;1999.90;;;999.90;;
9536;SDS011;4807;48.024;11.726;2022-08-05T13:36:19;1999.90;;;999.90;;
9536;SDS011;4807;48.024;11.726;2022-08-05T13:39:31;1999.90;;;999.90;;
9536;SDS011;4807;48.024;11.726;2022-08-05T13:43:06;1999.90;;;999.90;;
9536;SDS011;4807;48.024;11.726;2022-08-05T13:46:17;1999.90;;;999.90;;
9536;SDS011;4807;48.024;11.726;2022-08-05T13:49:46;1999.90;;;999.90;;
9536;SDS011;4807;48.024;11.726;2022-08-05T13:52:56;1999.90;;;999.90;;
9536;SDS011;4807;48.024;11.726;2022-08-05T13:56:06;1999.90;;;999.90;;
9536;SDS011;4807;48.024;11.726;2022-08-05T13:59:24;1999.90;;;999.90;;
9536;SDS011;4807;48.024;11.726;2022-08-05T14:02:36;1999.90;;;999.90;;
9536;SDS011;4807;48.024;11.726;2022-08-05T14:05:45;1999.90;;;999.90;;
9536;SDS011;4807;48.024;11.726;2022-08-05T14:09:13;1999.90;;;999.90;;
9536;SDS011;4807;48.024;11.726;2022-08-05T14:12:28;1999.90;;;999.90;;
9536;SDS011;4807;48.024;11.726;2022-08-05T14:15:38;1999.90;;;999.90;;
9536;SDS011;4807;48.024;11.726;2022-08-05T14:19:06;1999.90;;;999.90;;
9536;SDS011;4807;48.024;11.726;2022-08-05T14:22:15;1999.90;;;999.90;;
9536;SDS011;4807;48.024;11.726;2022-08-05T14:25:24;1999.90;;;999.90;;
9536;SDS011;4807;48.024;11.726;2022-08-05T14:28:37;1999.90;;;999.90;;
9536;SDS011;4807;48.024;11.726;2022-08-05T14:31:57;1999.90;;;999.90;;
9536;SDS011;4807;48.024;11.726;2022-08-05T14:35:21;1999.90;;;999.90;;
9536;SDS011;4807;48.024;11.726;2022-08-05T14:38:49;1999.90;;;999.90;;
9536;SDS011;4807;48.024;11.726;2022-08-05T14:41:59;1999.90;;;999.90;;
9536;SDS011;4807;48.024;11.726;2022-08-05T14:45:28;1999.90;;;999.90;;
9536;SDS011;4807;48.024;11.726;2022-08-05T14:48:37;1999.90;;;999.90;;
9536;SDS011;4807;48.024;11.726;2022-08-05T14:51:45;1999.90;;;999.90;;
9536;SDS011;4807;48.024;11.726;2022-08-05T14:54:59;1999.90;;;999.90;;
9536;SDS011;4807;48.024;11.726;2022-08-05T14:58:10;1999.90;;;999.90;;
9536;SDS011;4807;48.024;11.726;2022-08-05T15:01:20;1999.90;;;999.90;;
9536;SDS011;4807;48.024;11.726;2022-08-05T15:04:48;1999.90;;;999.90;;
9536;SDS011;4807;48.024;11.726;2022-08-05T15:07:58;1999.90;;;999.90;;
9536;SDS011;4807;48.024;11.726;2022-08-05T15:11:18;1999.90;;;999.90;;
9536;SDS011;4807;48.024;11.726;2022-08-05T15:14:47;1999.90;;;999.90;;
9536;SDS011;4807;48.024;11.726;2022-08-05T15:17:59;1999.90;;;999.90;;
9536;SDS011;4807;48.024;11.726;2022-08-05T15:21:11;1999.90;;;999.90;;
9536;SDS011;4807;48.024;11.726;2022-08-05T15:24:26;1999.90;;;999.90;;
9536;SDS011;4807;48.024;11.726;2022-08-05T15:27:36;1999.90;;;999.90;;
9536;SDS011;4807;48.024;11.726;2022-08-05T15:30:48;1999.90;;;999.90;;
9536;SDS011;4807;48.024;11.726;2022-08-05T15:34:00;1999.90;;;999.90;;
9536;SDS011;4807;48.024;11.726;2022-08-05T15:37:28;1999.90;;;999.90;;
9536;SDS011;4807;48.024;11.726;2022-08-05T15:40:57;1999.90;;;999.90;;
9536;SDS011;4807;48.024;11.726;2022-08-05T15:44:25;1999.90;;;999.90;;
9536;SDS011;4807;48.024;11.726;2022-08-05T15:47:36;1999.90;;;999.90;;
9536;SDS011;4807;48.024;11.726;2022-08-05T15:50:46;1999.90;;;999.90;;
9536;SDS011;4807;48.024;11.726;2022-08-05T15:53:56;1999.90;;;999.90;;
9536;SDS011;4807;48.024;11.726;2022-08-05T15:57:06;1999.90;;;999.90;;
9536;SDS011;4807;48.024;11.726;2022-08-05T16:00:15;1999.90;;;999.90;;
9536;SDS011;4807;48.024;11.726;2022-08-05T16:03:45;1999.90;;;999.90;;
9536;SDS011;4807;48.024;11.726;2022-08-05T16:06:57;1999.90;;;999.90;;
9536;SDS011;4807;48.024;11.726;2022-08-05T16:10:06;1999.90;;;999.90;;
9536;SDS011;4807;48.024;11.726;2022-08-05T16:13:17;1999.90;;;999.90;;
9536;SDS011;4807;48.024;11.726;2022-08-05T16:16:29;1999.90;;;999.90;;
9536;SDS011;4807;48.024;11.726;2022-08-05T16:19:40;1999.90;;;999.90;;
9536;SDS011;4807;48.024;11.726;2022-08-05T16:23:10;1999.90;;;999.90;;
9536;SDS011;4807;48.024;11.726;2022-08-05T16:26:18;1999.90;;;999.90;;
9536;SDS011;4807;48.024;11.726;2022-08-05T16:29:32;1999.90;;;999.90;;
9536;SDS011;4807;48.024;11.726;2022-08-05T16:32:43;1999.90;;;999.90;;
9536;SDS011;4807;48.024;11.726;2022-08-05T16:35:51;1999.90;;;999.90;;
9536;SDS011;4807;48.024;11.726;2022-08-05T16:39:01;1999.90;;;999.90;;
9536;SDS011;4807;48.024;11.726;2022-08-05T16:42:10;1999.90;;;999.90;;
9536;SDS011;4807;48.024;11.726;2022-08-05T16:45:32;1999.90;;;999.90;;
9536;SDS011;4807;48.024;11.726;2022-08-05T16:49:01;1999.90;;;999.90;;
9536;SDS011;4807;48.024;11.726;2022-08-05T16:52:10;1999.90;;;999.90;;
9536;SDS011;4807;48.024;11.726;2022-08-05T16:55:20;1999.90;;;999.90;;
9536;SDS011;4807;48.024;11.726;2022-08-05T16:58:29;1999.90;;;999.90;;
9536;SDS011;4807;48.024;11.726;2022-08-05T17:01:38;1999.90;;;999.90;;
9536;SDS011;4807;48.024;11.726;2022-08-05T17:05:01;1999.90;;;999.90;;
9536;SDS011;4807;48.024;11.726;2022-08-05T17:08:11;1999.90;;;999.90;;
9536;SDS011;4807;48.024;11.726;2022-08-05T17:11:41;1999.90;;;999.90;;
9536;SDS011;4807;48.024;11.726;2022-08-05T17:14:54;1999.90;;;999.90;;
9536;SDS011;4807;48.024;11.726;2022-08-05T17:18:03;1999.90;;;999.90;;
9536;SDS011;4807;48.024;11.726;2022-08-05T17:21:19;1999.90;;;999.90;;
9536;SDS011;4807;48.024;11.726;2022-08-05T17:24:29;1999.90;;;999.90;;
9536;SDS011;4807;48.024;11.726;2022-08-05T17:27:50;1999.90;;;999.90;;
9536;SDS011;4807;48.024;11.726;2022-08-05T17:30:58;1999.90;;;999.90;;
9536;SDS011;4807;48.024;11.726;2022-08-05T17:34:13;1999.90;;;999.90;;
9536;SDS011;4807;48.024;11.726;2022-08-05T17:37:23;1999.90;;;999.90;;
9536;SDS011;4807;48.024;11.726;2022-08-05T17:40:50;1999.90;;;999.90;;
9536;SDS011;4807;48.024;11.726;2022-08-05T17:44:00;1999.90;;;999.90;;
9536;SDS011;4807;48.024;11.726;2022-08-05T17:47:08;1999.90;;;999.90;;
9536;SDS011;4807;48.024;11.726;2022-08-05T17:50:17;1999.90;;;999.90;;
9536;SDS011;4807;48.024;11.726;2022-08-05T17:53:34;1999.90;;;999.90;;
9536;SDS011;4807;48.024;11.726;2022-08-05T17:56:45;1999.90;;;999.90;;
9536;SDS011;4807;48.024;11.726;2022-08-05T17:59:58;1999.90;;;999.90;;
9536;SDS011;4807;48.024;11.726;2022-08-05T18:03:11;1999.90;;;999.90;;
9536;SDS011;4807;48.024;11.726;2022-08-05T18:06:40;1999.90;;;999.90;;
9536;SDS011;4807;48.024;11.726;2022-08-05T18:09:51;1999.90;;;999.90;;
9536;SDS011;4807;48.024;11.726;2022-08-05T18:13:07;1999.90;;;999.90;;
9536;SDS011;4807;48.024;11.726;2022-08-05T18:16:19;1999.90;;;999.90;;
9536;SDS011;4807;48.024;11.726;2022-08-05T18:19:28;1999.90;;;999.90;;
9536;SDS011;4807;48.024;11.726;2022-08-05T18:22:37;1999.90;;;999.90;;
9536;SDS011;4807;48.024;11.726;2022-08-05T18:26:02;1999.90;;;999.90;;
9536;SDS011;4807;48.024;11.726;2022-08-05T18:29:11;1999.90;;;999.90;;
9536;SDS011;4807;48.024;11.726;2022-08-05T18:32:23;1999.90;;;999.90;;
9536;SDS011;4807;48.024;11.726;2022-08-05T18:35:34;2.83;;;2.60;;
9536;SDS011;4807;48.024;11.726;2022-08-05T18:39:03;4.00;;;2.87;;
9536;SDS011;4807;48.024;11.726;2022-08-05T18:42:33;6.47;;;3.40;;
9536;SDS011;4807;48.024;11.726;2022-08-05T18:45:43;11.07;;;3.60;;
9536;SDS011;4807;48.024;11.726;2022-08-05T18:48:56;9.23;;;3.70;;
9536;SDS011;4807;48.024;11.726;2022-08-05T18:52:26;7.33;;;3.40;;
9536;SDS011;4807;48.024;11.726;2022-08-05T18:55:41;4.93;;;3.23;;
9536;SDS011;4807;48.024;11.726;2022-08-05T18:58:50;5.83;;;3.37;;
9536;SDS011;4807;48.024;11.726;2022-08-05T19:02:06;4.10;;;3.10;;
9536;SDS011;4807;48.024;11.726;2022-08-05T19:05:35;3.60;;;3.20;;
9536;SDS011;4807;48.024;11.726;2022-08-05T19:09:04;1999.90;;;999.90;;